createdAt,value
2024-05-09T00:00:36.354Z,11.64
2024-05-09T00:03:10.960Z,11.62
2024-05-09T00:05:40.944Z,11.53
2024-05-09T00:08:09.330Z,11.55
2024-05-09T00:10:38.588Z,11.55
2024-05-09T00:13:07.588Z,11.55
2024-05-09T00:15:35.174Z,11.55
2024-05-09T00:18:02.995Z,11.45
2024-05-09T00:20:37.447Z,11.43
2024-05-09T00:23:07.678Z,11.39
2024-05-09T00:25:34.894Z,11.36
2024-05-09T00:28:01.680Z,11.36
2024-05-09T00:30:34.240Z,11.29
2024-05-09T00:33:04.627Z,11.27
2024-05-09T00:35:32.050Z,11.31
2024-05-09T00:37:58.669Z,11.27
2024-05-09T00:40:35.346Z,11.32
2024-05-09T00:43:06.610Z,11.23
2024-05-09T00:45:36.286Z,11.29
2024-05-09T00:48:06.485Z,11.23
2024-05-09T00:50:37.484Z,11.19
2024-05-09T00:53:06.695Z,11.19
2024-05-09T00:55:36.385Z,11.13
2024-05-09T00:58:04.345Z,11.09
2024-05-09T01:00:37.951Z,11.06
2024-05-09T01:03:07.352Z,11.08
2024-05-09T01:05:34.909Z,11.03
2024-05-09T01:08:02.713Z,10.98
2024-05-09T01:10:34.350Z,11.01
2024-05-09T01:13:03.539Z,10.98
2024-05-09T01:15:30.155Z,10.95
2024-05-09T01:17:57.959Z,10.92
2024-05-09T01:20:36.444Z,10.92
2024-05-09T01:23:08.821Z,10.90
2024-05-09T01:25:35.635Z,10.87
2024-05-09T01:28:02.325Z,10.86
2024-05-09T01:30:34.598Z,10.84
2024-05-09T01:33:04.180Z,10.81
2024-05-09T01:35:31.196Z,10.75
2024-05-09T01:37:57.844Z,10.78
2024-05-09T01:40:33.523Z,10.78
2024-05-09T01:43:04.730Z,10.78
2024-05-09T01:45:31.442Z,10.79
2024-05-09T01:47:58.236Z,10.82
2024-05-09T01:50:36.254Z,10.79
2024-05-09T01:53:06.533Z,10.91
2024-05-09T01:55:33.087Z,10.93
2024-05-09T01:57:59.574Z,10.89
2024-05-09T02:00:36.874Z,10.99
2024-05-09T02:03:14.421Z,11.03
2024-05-09T02:05:44.564Z,11.05
2024-05-09T02:08:23.899Z,11.01
2024-05-09T02:10:50.908Z,11.01
2024-05-09T02:13:17.838Z,11.06
2024-05-09T02:15:44.425Z,11.07
2024-05-09T02:18:11.478Z,11.04
2024-05-09T02:20:39.399Z,11.07
2024-05-09T02:23:06.917Z,11.12
2024-05-09T02:25:33.901Z,11.14
2024-05-09T02:28:00.591Z,11.14
2024-05-09T02:30:37.765Z,11.20
2024-05-09T02:33:08.318Z,11.22
2024-05-09T02:35:35.725Z,11.31
2024-05-09T02:38:02.415Z,11.35
2024-05-09T02:40:36.216Z,11.37
2024-05-09T02:43:05.844Z,11.40
2024-05-09T02:45:32.566Z,11.42
2024-05-09T02:47:59.318Z,11.39
2024-05-09T02:50:33.931Z,11.38
2024-05-09T02:53:05.301Z,11.37
2024-05-09T02:55:32.190Z,11.35
2024-05-09T02:57:58.703Z,11.27
2024-05-09T03:00:34.301Z,11.31
2024-05-09T03:03:06.131Z,11.23
2024-05-09T03:05:33.278Z,11.19
2024-05-09T03:07:59.878Z,11.14
2024-05-09T03:10:28.999Z,11.07
2024-05-09T03:13:05.005Z,11.01
2024-05-09T03:15:32.864Z,10.91
2024-05-09T03:18:00.243Z,10.90
2024-05-09T03:20:33.037Z,10.91
2024-05-09T03:23:01.981Z,10.86
2024-05-09T03:25:28.547Z,10.81
2024-05-09T03:27:55.017Z,10.90
2024-05-09T03:30:31.001Z,10.91
2024-05-09T03:33:10.229Z,10.85
2024-05-09T03:35:37.150Z,10.88
2024-05-09T03:38:03.915Z,10.79
2024-05-09T03:40:31.170Z,10.80
2024-05-09T03:42:58.710Z,10.72
2024-05-09T03:45:25.263Z,10.70
2024-05-09T03:47:52.103Z,10.60
2024-05-09T03:50:26.381Z,10.56
2024-05-09T03:53:00.261Z,10.55
2024-05-09T03:55:26.971Z,10.53
2024-05-09T03:57:53.480Z,10.52
2024-05-09T04:00:30.061Z,10.44
2024-05-09T04:03:01.911Z,10.49
2024-05-09T04:05:30.719Z,10.42
2024-05-09T04:07:57.550Z,10.41
2024-05-09T04:10:30.927Z,10.40
2024-05-09T04:13:00.053Z,10.30
2024-05-09T04:15:26.550Z,10.12
2024-05-09T04:17:53.347Z,10.23
2024-05-09T04:20:29.294Z,10.17
2024-05-09T04:23:04.053Z,10.13
2024-05-09T04:25:32.083Z,10.22
2024-05-09T04:27:58.609Z,10.23
2024-05-09T04:30:34.501Z,10.21
2024-05-09T04:33:05.880Z,10.26
2024-05-09T04:35:32.710Z,10.24
2024-05-09T04:37:59.251Z,10.28
2024-05-09T04:40:32.997Z,10.29
2024-05-09T04:43:02.339Z,10.30
2024-05-09T04:45:28.881Z,10.31
2024-05-09T04:47:55.579Z,10.32
2024-05-09T04:50:30.132Z,10.31
2024-05-09T04:53:03.175Z,10.35
2024-05-09T04:55:29.844Z,10.42
2024-05-09T04:57:56.359Z,10.50
2024-05-09T05:00:32.283Z,10.56
2024-05-09T05:03:06.805Z,10.65
2024-05-09T05:05:34.536Z,10.64
2024-05-09T05:08:01.202Z,10.74
2024-05-09T05:10:33.874Z,10.76
2024-05-09T05:13:17.208Z,10.74
2024-05-09T05:15:46.099Z,10.81
2024-05-09T05:18:12.706Z,10.90
2024-05-09T05:20:39.291Z,10.91
2024-05-09T05:23:12.404Z,10.97
2024-05-09T05:25:39.169Z,11.01
2024-05-09T05:28:06.082Z,11.02
2024-05-09T05:30:34.679Z,11.09
2024-05-09T05:33:01.933Z,11.15
2024-05-09T05:35:28.805Z,11.17
2024-05-09T05:37:55.349Z,11.29
2024-05-09T05:40:28.609Z,11.32
2024-05-09T05:43:03.202Z,11.43
2024-05-09T05:45:29.686Z,11.46
2024-05-09T05:47:56.509Z,11.57
2024-05-09T05:50:28.083Z,11.58
2024-05-09T05:53:01.998Z,11.64
2024-05-09T05:55:28.583Z,11.68
2024-05-09T05:57:55.071Z,11.83
2024-05-09T06:00:29.705Z,11.87
2024-05-09T06:03:04.412Z,11.96
2024-05-09T06:05:31.093Z,12.02
2024-05-09T06:07:57.631Z,12.11
2024-05-09T06:10:29.668Z,12.20
2024-05-09T06:13:01.461Z,12.28
2024-05-09T06:15:28.043Z,12.41
2024-05-09T06:17:54.732Z,12.47
2024-05-09T06:20:31.243Z,12.58
2024-05-09T06:23:03.091Z,12.68
2024-05-09T06:25:29.752Z,12.77
2024-05-09T06:27:56.218Z,12.82
2024-05-09T06:30:30.080Z,12.93
2024-05-09T06:33:05.195Z,13.03
2024-05-09T06:35:32.641Z,13.13
2024-05-09T06:37:59.329Z,13.22
2024-05-09T06:40:34.203Z,13.38
2024-05-09T06:43:04.500Z,13.47
2024-05-09T06:45:30.970Z,13.58
2024-05-09T06:47:57.549Z,13.70
2024-05-09T06:50:28.273Z,13.81
2024-05-09T06:52:58.292Z,13.90
2024-05-09T06:55:24.857Z,14.04
2024-05-09T06:57:51.321Z,14.19
2024-05-09T07:00:26.806Z,14.28
2024-05-09T07:02:58.413Z,14.44
2024-05-09T07:05:26.254Z,14.59
2024-05-09T07:07:52.941Z,14.73
2024-05-09T07:10:28.328Z,14.91
2024-05-09T07:12:59.078Z,15.06
2024-05-09T07:15:25.530Z,15.17
2024-05-09T07:17:52.251Z,15.32
2024-05-09T07:20:27.528Z,15.45
2024-05-09T07:23:00.428Z,15.71
2024-05-09T07:25:26.841Z,15.96
2024-05-09T07:27:53.313Z,16.16
2024-05-09T07:30:27.416Z,16.37
2024-05-09T07:32:59.537Z,16.51
2024-05-09T07:35:26.333Z,16.67
2024-05-09T07:37:52.979Z,16.91
2024-05-09T07:40:28.576Z,17.42
2024-05-09T07:43:06.571Z,18.97
2024-05-09T07:52:23.309Z,24.04
2024-05-09T07:53:38.442Z,24.92
2024-05-09T07:56:06.411Z,26.31
2024-05-09T07:58:33.063Z,26.82
2024-05-09T08:00:59.697Z,27.16
2024-05-09T08:03:26.286Z,27.42
2024-05-09T08:05:54.319Z,27.66
2024-05-09T08:08:20.907Z,27.75
2024-05-09T08:10:47.780Z,28.02
2024-05-09T08:13:14.402Z,28.32
2024-05-09T08:15:41.260Z,27.91
2024-05-09T08:18:11.469Z,27.56
2024-05-09T08:20:38.842Z,27.71
2024-05-09T08:23:05.804Z,28.46
2024-05-09T08:25:32.582Z,28.81
2024-05-09T08:27:59.105Z,28.82
2024-05-09T08:30:32.812Z,28.85
2024-05-09T08:33:03.602Z,28.90
2024-05-09T08:35:30.167Z,29.46
2024-05-09T08:37:56.756Z,29.67
2024-05-09T08:40:30.736Z,29.49
2024-05-09T08:43:03.007Z,29.21
2024-05-09T08:45:31.127Z,29.05
2024-05-09T08:48:01.285Z,28.93
2024-05-09T08:50:36.056Z,29.15
2024-05-09T08:53:06.725Z,29.61
2024-05-09T08:55:33.387Z,29.86
2024-05-09T08:58:02.322Z,29.75
2024-05-09T09:00:36.771Z,29.85
2024-05-09T09:03:09.079Z,30.08
2024-05-09T09:05:38.421Z,29.77
2024-05-09T09:08:08.153Z,29.68
2024-05-09T09:10:35.340Z,29.28
2024-05-09T09:13:04.215Z,29.10
2024-05-09T09:15:31.229Z,28.50
2024-05-09T09:17:59.300Z,28.15
2024-05-09T09:20:36.374Z,28.16
2024-05-09T09:23:04.323Z,28.59
2024-05-09T09:25:31.854Z,28.89
2024-05-09T09:27:58.813Z,28.62
2024-05-09T09:30:36.197Z,28.54
2024-05-09T09:33:05.841Z,28.20
2024-05-09T09:35:32.862Z,28.31
2024-05-09T09:38:02.705Z,28.40
2024-05-09T09:40:37.101Z,28.69
2024-05-09T09:43:13.961Z,29.02
2024-05-09T09:45:43.222Z,29.15
2024-05-09T09:48:10.441Z,29.14
2024-05-09T09:50:37.662Z,29.00
2024-05-09T09:53:06.979Z,28.42
2024-05-09T09:55:33.576Z,28.00
2024-05-09T09:58:00.681Z,27.40
2024-05-09T10:00:32.637Z,27.13
2024-05-09T10:03:00.585Z,26.87
2024-05-09T10:05:28.253Z,26.60
2024-05-09T10:07:56.465Z,26.55
2024-05-09T10:10:30.430Z,26.34
2024-05-09T10:13:08.883Z,26.27
2024-05-09T10:15:46.009Z,26.03
2024-05-09T10:18:13.025Z,25.85
2024-05-09T10:20:44.279Z,25.99
2024-05-09T10:23:27.749Z,25.97
2024-05-09T10:26:05.177Z,25.89
2024-05-09T10:28:35.087Z,25.79
2024-05-09T10:31:13.401Z,25.21
2024-05-09T10:33:46.578Z,24.43
2024-05-09T10:36:23.680Z,23.80
2024-05-09T10:38:55.444Z,23.34
2024-05-09T10:41:23.397Z,23.18
2024-05-09T10:43:50.180Z,23.02
2024-05-09T10:46:19.137Z,22.65
2024-05-09T10:48:47.372Z,22.23
2024-05-09T10:51:14.162Z,21.86
2024-05-09T10:53:48.381Z,22.05
2024-05-09T10:56:15.333Z,22.72
2024-05-09T10:58:42.196Z,23.32
2024-05-09T11:01:09.817Z,23.20
2024-05-09T11:03:37.916Z,22.86
2024-05-09T11:06:05.556Z,22.50
2024-05-09T11:08:32.935Z,22.07
2024-05-09T11:11:00.252Z,21.78
2024-05-09T11:13:30.830Z,21.73
2024-05-09T11:15:59.214Z,22.03
2024-05-09T11:18:29.774Z,22.64
2024-05-09T11:20:59.007Z,23.11
2024-05-09T11:23:30.183Z,22.92
2024-05-09T11:25:58.567Z,22.72
2024-05-09T11:28:28.292Z,22.77
2024-05-09T11:31:06.516Z,22.87
2024-05-09T11:33:37.405Z,22.83
2024-05-09T11:36:04.359Z,22.59
2024-05-09T11:38:31.272Z,22.41
2024-05-09T11:40:57.793Z,22.24
2024-05-09T11:43:24.424Z,22.05
2024-05-09T11:45:51.193Z,21.71
2024-05-09T11:48:17.843Z,21.60
2024-05-09T11:50:44.469Z,22.11
2024-05-09T11:53:12.113Z,22.70
2024-05-09T11:55:38.620Z,22.95
2024-05-09T11:58:05.272Z,22.74
2024-05-09T12:00:36.809Z,22.51
2024-05-09T12:03:05.682Z,22.27
2024-05-09T12:05:33.740Z,22.27
2024-05-09T12:08:01.088Z,22.26
2024-05-09T12:10:33.201Z,22.20
2024-05-09T12:13:02.833Z,22.14
2024-05-09T12:15:30.047Z,22.04
2024-05-09T12:17:59.043Z,22.31
2024-05-09T12:20:35.449Z,22.97
2024-05-09T12:23:05.083Z,23.71
2024-05-09T12:25:31.619Z,24.41
2024-05-09T12:27:58.336Z,24.80
2024-05-09T12:30:33.151Z,25.10
2024-05-09T12:33:04.678Z,25.52
2024-05-09T12:35:31.556Z,25.66
2024-05-09T12:37:58.036Z,25.76
2024-05-09T12:40:34.179Z,26.21
2024-05-09T12:43:05.004Z,26.42
2024-05-09T12:45:31.964Z,26.33
2024-05-09T12:47:58.793Z,26.00
2024-05-09T12:50:31.927Z,25.63
2024-05-09T12:53:00.962Z,25.57
2024-05-09T12:55:28.525Z,25.63
2024-05-09T12:57:57.243Z,25.79
2024-05-09T13:00:28.360Z,25.82
2024-05-09T13:03:00.966Z,26.09
2024-05-09T13:05:28.067Z,26.32
2024-05-09T13:07:56.721Z,26.41
2024-05-09T13:10:31.118Z,26.28
2024-05-09T13:13:00.173Z,26.03
2024-05-09T13:15:27.242Z,25.50
2024-05-09T13:17:55.783Z,25.41
2024-05-09T13:20:31.181Z,25.49
2024-05-09T13:23:01.754Z,25.76
2024-05-09T13:25:28.415Z,25.85
2024-05-09T13:27:55.363Z,25.98
2024-05-09T13:30:29.480Z,25.87
2024-05-09T13:33:05.193Z,25.74
2024-05-09T13:35:32.297Z,25.54
2024-05-09T13:37:58.891Z,25.35
2024-05-09T13:40:32.336Z,25.34
2024-05-09T13:43:01.976Z,25.63
2024-05-09T13:45:28.686Z,25.89
2024-05-09T13:47:55.489Z,26.03
2024-05-09T13:50:31.013Z,25.92
2024-05-09T13:53:01.591Z,25.63
2024-05-09T13:55:28.172Z,25.64
2024-05-09T13:57:55.320Z,25.59
2024-05-09T14:00:37.450Z,25.11
2024-05-09T14:03:08.575Z,24.35
2024-05-09T14:05:35.466Z,23.92
2024-05-09T14:08:02.199Z,23.61
2024-05-09T14:10:31.139Z,23.39
2024-05-09T14:12:58.723Z,23.32
2024-05-09T14:15:25.323Z,23.66
2024-05-09T14:17:51.956Z,24.19
2024-05-09T14:20:28.257Z,24.67
2024-05-09T14:22:58.030Z,25.03
2024-05-09T14:25:26.449Z,25.50
2024-05-09T14:27:53.364Z,25.72
2024-05-09T14:30:29.706Z,25.51
2024-05-09T14:33:01.429Z,25.21
2024-05-09T14:35:28.135Z,24.85
2024-05-09T14:37:54.793Z,24.42
2024-05-09T14:40:30.938Z,23.90
2024-05-09T14:43:06.163Z,23.45
2024-05-09T14:45:32.804Z,23.19
2024-05-09T14:47:59.648Z,23.31
2024-05-09T14:50:34.657Z,23.59
2024-05-09T14:53:05.834Z,23.92
2024-05-09T14:55:35.175Z,24.46
2024-05-09T14:58:02.623Z,24.79
2024-05-09T15:00:33.511Z,24.91
2024-05-09T15:03:03.049Z,25.08
2024-05-09T15:05:30.075Z,25.30
2024-05-09T15:07:57.621Z,25.45
2024-05-09T15:10:33.339Z,25.35
2024-05-09T15:13:02.327Z,25.25
2024-05-09T15:15:29.004Z,24.92
2024-05-09T15:17:55.860Z,24.88
2024-05-09T15:20:31.018Z,24.97
2024-05-09T15:23:01.790Z,25.23
2024-05-09T15:25:28.369Z,25.29
2024-05-09T15:27:55.083Z,25.10
2024-05-09T15:30:29.918Z,24.64
2024-05-09T15:32:58.992Z,24.25
2024-05-09T15:35:25.518Z,24.09
2024-05-09T15:37:52.154Z,24.24
2024-05-09T15:40:26.585Z,24.49
2024-05-09T15:43:02.321Z,24.56
2024-05-09T15:45:29.374Z,24.57
2024-05-09T15:47:56.991Z,24.54
2024-05-09T15:50:35.112Z,24.46
2024-05-09T15:53:05.889Z,24.47
2024-05-09T15:55:33.927Z,24.70
2024-05-09T15:58:02.263Z,24.85
2024-05-09T16:00:37.199Z,24.86
2024-05-09T16:03:07.528Z,24.78
2024-05-09T16:05:34.474Z,24.73
2024-05-09T16:08:01.294Z,24.66
2024-05-09T16:10:32.632Z,24.58
2024-05-09T16:13:01.041Z,24.69
2024-05-09T16:15:27.830Z,24.62
2024-05-09T16:17:55.035Z,24.23
2024-05-09T16:20:33.933Z,23.75
2024-05-09T16:23:05.998Z,23.45
2024-05-09T16:25:32.603Z,23.06
2024-05-09T16:27:59.395Z,22.75
2024-05-09T16:30:32.152Z,22.52
2024-05-09T16:33:02.688Z,22.33
2024-05-09T16:35:29.495Z,22.30
2024-05-09T16:37:56.155Z,22.46
2024-05-09T16:40:30.263Z,22.68
2024-05-09T16:43:04.551Z,22.95
2024-05-09T16:45:31.454Z,23.04
2024-05-09T16:47:59.656Z,23.13
2024-05-09T16:50:32.207Z,23.25
2024-05-09T16:53:00.895Z,23.32
2024-05-09T16:55:27.742Z,23.32
2024-05-09T16:57:55.343Z,23.13
2024-05-09T17:00:31.783Z,22.86
2024-05-09T17:03:07.312Z,22.55
2024-05-09T17:05:34.639Z,22.26
2024-05-09T17:08:01.581Z,22.04
2024-05-09T17:10:32.856Z,21.85
2024-05-09T17:13:01.876Z,21.71
2024-05-09T17:15:28.580Z,21.60
2024-05-09T17:17:55.768Z,21.65
2024-05-09T17:20:29.242Z,21.67
2024-05-09T17:23:00.266Z,21.73
2024-05-09T17:25:26.830Z,21.71
2024-05-09T17:27:54.150Z,21.64
2024-05-09T17:30:28.811Z,21.64
2024-05-09T17:33:01.350Z,21.56
2024-05-09T17:35:28.144Z,21.52
2024-05-09T17:37:54.792Z,21.45
2024-05-09T17:40:30.111Z,21.42
2024-05-09T17:43:00.080Z,21.38
2024-05-09T17:45:26.711Z,21.31
2024-05-09T17:47:53.578Z,21.29
2024-05-09T17:50:27.438Z,21.25
2024-05-09T17:53:00.464Z,21.23
2024-05-09T17:55:27.200Z,21.15
2024-05-09T17:57:53.869Z,21.14
2024-05-09T18:00:29.035Z,21.06
2024-05-09T18:03:03.664Z,21.01
2024-05-09T18:05:30.411Z,20.95
2024-05-09T18:07:57.343Z,20.88
2024-05-09T18:10:30.091Z,20.82
2024-05-09T18:13:02.703Z,20.78
2024-05-09T18:15:29.322Z,20.71
2024-05-09T18:17:56.064Z,20.64
2024-05-09T18:20:32.726Z,20.53
2024-05-09T18:23:07.565Z,20.46
2024-05-09T18:25:34.438Z,20.34
2024-05-09T18:28:04.820Z,20.22
2024-05-09T18:30:35.075Z,20.09
2024-05-09T18:33:05.007Z,20.03
2024-05-09T18:35:32.685Z,19.90
2024-05-09T18:37:59.312Z,19.85
2024-05-09T18:40:32.970Z,19.74
2024-05-09T18:43:03.573Z,19.67
2024-05-09T18:45:30.701Z,19.59
2024-05-09T18:47:57.676Z,19.54
2024-05-09T18:50:32.506Z,19.47
2024-05-09T18:53:05.924Z,19.42
2024-05-09T18:55:32.516Z,19.33
2024-05-09T18:57:59.112Z,19.26
2024-05-09T19:00:33.866Z,19.19
2024-05-09T19:03:05.679Z,19.13
2024-05-09T19:05:33.220Z,19.08
2024-05-09T19:08:00.210Z,19.01
2024-05-09T19:10:33.635Z,18.95
2024-05-09T19:13:04.393Z,18.83
2024-05-09T19:15:33.818Z,18.75
2024-05-09T19:18:00.666Z,18.65
2024-05-09T19:20:33.153Z,18.62
2024-05-09T19:23:01.280Z,18.52
2024-05-09T19:25:27.854Z,18.42
2024-05-09T19:27:54.360Z,18.36
2024-05-09T19:30:29.797Z,18.28
2024-05-09T19:33:04.526Z,18.16
2024-05-09T19:35:31.216Z,18.10
2024-05-09T19:37:57.968Z,17.96
2024-05-09T19:40:30.455Z,17.93
2024-05-09T19:42:59.479Z,17.88
2024-05-09T19:45:26.072Z,17.84
2024-05-09T19:47:52.930Z,17.79
2024-05-09T19:50:26.385Z,17.71
2024-05-09T19:52:59.040Z,17.75
2024-05-09T19:55:25.854Z,17.70
2024-05-09T19:57:52.459Z,17.68
2024-05-09T20:00:26.019Z,17.66
2024-05-09T20:02:56.134Z,17.63
2024-05-09T20:05:23.566Z,17.59
2024-05-09T20:07:50.210Z,17.51
2024-05-09T20:10:23.500Z,17.46
2024-05-09T20:12:53.759Z,17.41
2024-05-09T20:15:20.443Z,17.37
2024-05-09T20:17:47.302Z,17.30
2024-05-09T20:20:24.468Z,17.27
2024-05-09T20:22:59.666Z,17.20
2024-05-09T20:25:26.194Z,17.17
2024-05-09T20:27:52.812Z,17.14
2024-05-09T20:30:28.578Z,17.06
2024-05-09T20:32:58.820Z,17.03
2024-05-09T20:35:26.369Z,16.97
2024-05-09T20:37:52.858Z,16.90
2024-05-09T20:40:26.082Z,16.85
2024-05-09T20:42:58.543Z,16.75
2024-05-09T20:45:25.088Z,16.72
2024-05-09T20:47:51.814Z,16.63
2024-05-09T20:50:27.893Z,16.59
2024-05-09T20:53:02.300Z,16.45
2024-05-09T20:55:30.034Z,16.42
2024-05-09T20:57:56.986Z,16.34
2024-05-09T21:00:30.283Z,16.24
2024-05-09T21:03:05.860Z,16.14
2024-05-09T21:05:32.949Z,16.07
2024-05-09T21:07:59.648Z,16.00
2024-05-09T21:10:27.099Z,15.94
2024-05-09T21:12:56.235Z,15.87
2024-05-09T21:15:23.058Z,15.78
2024-05-09T21:17:49.691Z,15.77
2024-05-09T21:20:20.489Z,15.68
2024-05-09T21:22:50.691Z,15.60
2024-05-09T21:25:17.311Z,15.55
2024-05-09T21:27:44.001Z,15.52
2024-05-09T21:30:16.053Z,15.49
2024-05-09T21:32:49.359Z,15.42
2024-05-09T21:35:17.475Z,15.39
2024-05-09T21:37:44.196Z,15.31
2024-05-09T21:40:16.944Z,15.26
2024-05-09T21:42:50.374Z,15.21
2024-05-09T21:45:17.046Z,15.17
2024-05-09T21:47:43.691Z,15.09
2024-05-09T21:50:18.636Z,15.05
2024-05-09T21:52:49.740Z,14.99
2024-05-09T21:55:16.318Z,14.99
2024-05-09T21:57:42.922Z,14.95
2024-05-09T22:00:24.258Z,14.89
2024-05-09T22:02:54.859Z,14.82
2024-05-09T22:05:21.451Z,14.77
2024-05-09T22:07:48.033Z,14.70
2024-05-09T22:10:22.716Z,14.65
2024-05-09T22:12:53.345Z,14.62
2024-05-09T22:15:20.511Z,14.55
2024-05-09T22:17:47.073Z,14.57
2024-05-09T22:20:21.838Z,14.55
2024-05-09T22:22:54.819Z,14.50
2024-05-09T22:25:21.711Z,14.48
2024-05-09T22:27:48.350Z,14.42
2024-05-09T22:30:21.116Z,14.41
2024-05-09T22:32:50.529Z,14.34
2024-05-09T22:35:17.216Z,14.30
2024-05-09T22:37:43.687Z,14.26
2024-05-09T22:42:37.196Z,14.15
2024-05-09T22:45:03.823Z,14.12
2024-05-09T22:47:30.354Z,14.09
2024-05-09T22:49:56.976Z,14.05
2024-05-09T22:52:23.498Z,13.99
2024-05-09T22:54:50.123Z,13.95
2024-05-09T22:57:16.622Z,13.91
2024-05-09T22:59:43.087Z,13.84
2024-05-09T23:02:09.681Z,13.79
2024-05-09T23:04:37.896Z,13.73
2024-05-09T23:07:04.529Z,13.65
2024-05-09T23:09:31.019Z,13.59
2024-05-09T23:11:57.557Z,13.54
2024-05-09T23:14:24.117Z,13.46
2024-05-09T23:16:50.658Z,13.42
2024-05-09T23:19:17.175Z,13.34
2024-05-09T23:21:43.742Z,13.30
2024-05-09T23:24:10.256Z,13.24
2024-05-09T23:26:42.428Z,13.21
2024-05-09T23:29:09.345Z,13.22
2024-05-09T23:31:35.845Z,13.19
2024-05-09T23:34:02.546Z,13.18
2024-05-09T23:36:29.285Z,13.13
2024-05-09T23:38:55.763Z,13.18
2024-05-09T23:41:22.701Z,13.19
2024-05-09T23:43:49.179Z,13.21
2024-05-09T23:46:15.707Z,13.22
2024-05-09T23:48:42.330Z,13.17
2024-05-09T23:51:08.842Z,13.19
2024-05-09T23:53:35.352Z,13.12
2024-05-09T23:56:01.859Z,13.06
2024-05-09T23:58:29.126Z,13.01
